createdAt,value
2023-06-10T00:01:56.564Z,100.00
2023-06-10T00:04:24.425Z,100.00
2023-06-10T00:06:54.963Z,100.00
2023-06-10T00:09:22.842Z,100.00
2023-06-10T00:11:50.781Z,100.00
2023-06-10T00:14:18.948Z,100.00
2023-06-10T00:16:47.188Z,100.00
2023-06-10T00:19:16.665Z,100.00
2023-06-10T00:21:45.947Z,100.00
2023-06-10T00:24:15.353Z,100.00
2023-06-10T00:26:43.620Z,100.00
2023-06-10T00:29:11.457Z,100.00
2023-06-10T00:31:40.110Z,100.00
2023-06-10T00:34:08.428Z,100.00
2023-06-10T00:36:37.169Z,100.00
2023-06-10T00:39:05.470Z,100.00
2023-06-10T00:41:35.262Z,100.00
2023-06-10T00:44:03.356Z,100.00
2023-06-10T00:46:33.366Z,100.00
2023-06-10T00:49:02.300Z,100.00
2023-06-10T00:51:30.208Z,100.00
2023-06-10T00:53:58.592Z,100.00
2023-06-10T00:56:26.983Z,100.00
2023-06-10T00:58:56.359Z,100.00
2023-06-10T01:01:25.098Z,100.00
2023-06-10T01:03:53.049Z,100.00
2023-06-10T01:06:25.885Z,100.00
2023-06-10T01:08:58.415Z,100.00
2023-06-10T01:11:31.053Z,100.00
2023-06-10T01:14:00.910Z,100.00
2023-06-10T01:16:29.602Z,100.00
2023-06-10T01:18:57.834Z,100.00
2023-06-10T01:21:27.610Z,100.00
2023-06-10T01:23:56.984Z,100.00
2023-06-10T01:26:27.190Z,100.00
2023-06-10T01:28:57.536Z,100.00
2023-06-10T01:31:34.955Z,100.00
2023-06-10T01:34:04.545Z,100.00
2023-06-10T01:36:34.538Z,100.00
2023-06-10T01:39:03.058Z,100.00
2023-06-10T01:41:31.111Z,100.00
2023-06-10T01:43:58.930Z,100.00
2023-06-10T01:46:26.860Z,100.00
2023-06-10T01:48:54.736Z,100.00
2023-06-10T01:51:22.669Z,100.00
2023-06-10T01:53:51.901Z,100.00
2023-06-10T01:56:21.112Z,100.00
2023-06-10T01:58:49.038Z,100.00
2023-06-10T02:01:16.994Z,100.00
2023-06-10T02:03:45.140Z,100.00
2023-06-10T02:06:13.076Z,100.00
2023-06-10T02:11:10.796Z,100.00
2023-06-10T02:13:40.492Z,100.00
2023-06-10T02:16:08.565Z,100.00
2023-06-10T02:18:36.427Z,100.00
2023-06-10T02:21:04.379Z,100.00
2023-06-10T02:23:32.396Z,100.00
2023-06-10T02:26:00.312Z,100.00
2023-06-10T02:28:29.632Z,100.00
2023-06-10T02:30:58.318Z,100.00
2023-06-10T02:33:26.289Z,100.00
2023-06-10T02:35:54.173Z,100.00
2023-06-10T02:38:22.070Z,100.00
2023-06-10T02:40:49.938Z,100.00
2023-06-10T02:43:17.850Z,100.00
2023-06-10T02:45:47.411Z,100.00
2023-06-10T02:48:15.335Z,100.00
2023-06-10T02:50:43.226Z,100.00
2023-06-10T02:53:11.100Z,100.00
2023-06-10T02:55:39.396Z,100.00
2023-06-10T02:58:07.289Z,100.00
2023-06-10T03:00:35.483Z,100.00
2023-06-10T03:03:06.358Z,100.00
2023-06-10T03:05:34.773Z,100.00
2023-06-10T03:08:02.654Z,100.00
2023-06-10T03:10:30.526Z,100.00
2023-06-10T03:12:58.402Z,100.00
2023-06-10T03:15:26.762Z,100.00
2023-06-10T03:17:54.656Z,100.00
2023-06-10T03:20:24.607Z,100.00
2023-06-10T03:22:52.703Z,100.00
2023-06-10T03:25:22.055Z,100.00
2023-06-10T03:27:49.964Z,100.00
2023-06-10T03:30:18.134Z,100.00
2023-06-10T03:32:46.172Z,100.00
2023-06-10T03:35:14.028Z,100.00
2023-06-10T03:37:43.310Z,100.00
2023-06-10T03:40:11.399Z,100.00
2023-06-10T03:42:39.310Z,100.00
2023-06-10T03:45:08.000Z,100.00
2023-06-10T03:47:37.358Z,100.00
2023-06-10T03:50:05.728Z,100.00
2023-06-10T03:52:33.633Z,100.00
2023-06-10T03:55:02.910Z,100.00
2023-06-10T03:57:30.847Z,100.00
2023-06-10T03:59:58.784Z,100.00
2023-06-10T04:02:27.032Z,100.00
2023-06-10T04:04:54.962Z,100.00
2023-06-10T04:07:22.903Z,100.00
2023-06-10T04:09:51.807Z,88.66
2023-06-10T04:12:21.026Z,93.59
2023-06-10T04:14:48.929Z,71.00
2023-06-10T04:17:17.729Z,66.59
2023-06-10T04:19:45.803Z,65.84
2023-06-10T04:22:13.685Z,65.73
2023-06-10T04:24:41.605Z,60.04
2023-06-10T04:27:09.562Z,56.02
2023-06-10T04:29:38.938Z,52.21
2023-06-10T04:32:07.997Z,50.17
2023-06-10T04:34:35.968Z,50.88
2023-06-10T04:37:03.947Z,47.83
2023-06-10T04:39:31.881Z,47.34
2023-06-10T04:41:59.786Z,46.63
2023-06-10T04:44:27.623Z,46.87
2023-06-10T04:46:57.272Z,48.47
2023-06-10T04:49:25.325Z,45.37
2023-06-10T04:51:53.215Z,45.16
2023-06-10T04:54:21.059Z,45.91
2023-06-10T04:56:48.946Z,46.20
2023-06-10T04:59:16.822Z,46.37
2023-06-10T05:01:44.857Z,46.46
2023-06-10T05:04:14.209Z,48.66
2023-06-10T05:06:42.174Z,46.07
2023-06-10T05:09:10.058Z,45.41
2023-06-10T05:11:37.900Z,49.88
2023-06-10T05:14:06.469Z,49.22
2023-06-10T05:16:34.411Z,48.96
2023-06-10T05:19:02.460Z,54.78
2023-06-10T05:21:32.366Z,52.74
2023-06-10T05:24:00.694Z,50.45
2023-06-10T05:26:30.064Z,48.27
2023-06-10T05:28:57.979Z,45.83
2023-06-10T05:31:25.891Z,42.63
2023-06-10T05:33:54.052Z,41.85
2023-06-10T05:36:22.150Z,42.54
2023-06-10T05:38:51.487Z,44.85
2023-06-10T05:41:19.452Z,47.05
2023-06-10T05:43:47.624Z,49.76
2023-06-10T05:46:16.029Z,46.79
2023-06-10T05:48:44.044Z,46.86
2023-06-10T05:51:12.311Z,43.36
2023-06-10T05:53:41.082Z,42.61
2023-06-10T05:56:10.393Z,43.85
2023-06-10T05:58:38.226Z,45.47
2023-06-10T06:01:06.362Z,44.92
2023-06-10T06:03:34.512Z,45.27
2023-06-10T06:06:02.500Z,47.46
2023-06-10T06:08:30.360Z,48.23
2023-06-10T06:10:58.243Z,48.92
2023-06-10T06:13:27.522Z,49.06
2023-06-10T06:15:55.464Z,51.35
2023-06-10T06:18:23.392Z,54.61
2023-06-10T06:20:52.114Z,52.46
2023-06-10T06:23:19.967Z,54.99
2023-06-10T06:25:47.914Z,51.18
2023-06-10T06:28:16.004Z,54.51
2023-06-10T06:30:45.324Z,55.07
2023-06-10T06:33:15.510Z,55.88
2023-06-10T06:35:46.754Z,52.59
2023-06-10T06:38:14.618Z,56.71
2023-06-10T06:40:42.514Z,54.32
2023-06-10T06:43:10.432Z,55.18
2023-06-10T06:45:38.300Z,53.31
2023-06-10T06:48:08.124Z,57.57
2023-06-10T06:50:36.128Z,58.76
2023-06-10T06:53:03.989Z,59.76
2023-06-10T06:55:32.016Z,61.12
2023-06-10T06:58:03.906Z,65.15
2023-06-10T07:00:31.903Z,71.57
2023-06-10T07:02:59.842Z,71.64
2023-06-10T07:05:29.498Z,74.63
2023-06-10T07:07:57.476Z,77.81
2023-06-10T07:10:25.607Z,74.21
2023-06-10T07:12:53.736Z,75.75
2023-06-10T07:15:21.753Z,78.71
2023-06-10T07:17:49.742Z,75.94
2023-06-10T07:20:19.315Z,77.48
2023-06-10T07:22:48.640Z,79.12
2023-06-10T07:25:17.160Z,80.61
2023-06-10T07:27:45.167Z,78.21
2023-06-10T07:30:13.650Z,75.41
2023-06-10T07:32:43.049Z,77.69
2023-06-10T07:35:12.025Z,76.10
2023-06-10T07:37:40.302Z,81.24
2023-06-10T07:40:11.864Z,81.72
2023-06-10T07:42:39.864Z,82.39
2023-06-10T07:45:08.449Z,82.02
2023-06-10T07:47:37.435Z,77.87
2023-06-10T07:50:05.638Z,78.89
2023-06-10T07:52:33.527Z,76.87
2023-06-10T07:55:01.486Z,80.77
2023-06-10T07:57:32.858Z,84.48
2023-06-10T08:00:01.470Z,81.19
2023-06-10T08:02:29.426Z,81.71
2023-06-10T08:04:57.358Z,82.74
2023-06-10T08:07:25.278Z,80.99
2023-06-10T08:09:53.135Z,84.89
2023-06-10T08:12:21.585Z,85.69
2023-06-10T08:14:51.182Z,87.42
2023-06-10T08:17:19.097Z,84.39
2023-06-10T08:19:47.081Z,85.62
2023-06-10T08:22:15.976Z,79.59
2023-06-10T08:24:44.312Z,84.28
2023-06-10T08:27:12.801Z,91.87
2023-06-10T08:29:41.409Z,87.37
2023-06-10T08:32:10.856Z,83.72
2023-06-10T08:34:38.803Z,80.20
2023-06-10T08:37:07.032Z,77.61
2023-06-10T08:39:34.924Z,77.78
2023-06-10T08:42:07.098Z,78.96
2023-06-10T08:44:39.155Z,78.82
2023-06-10T08:47:10.538Z,75.53
2023-06-10T08:49:40.957Z,77.60
2023-06-10T08:52:09.472Z,79.05
2023-06-10T08:54:39.160Z,76.25
2023-06-10T08:57:08.630Z,74.95
2023-06-10T08:59:36.765Z,73.81
2023-06-10T09:02:05.202Z,69.42
2023-06-10T09:04:33.266Z,67.82
2023-06-10T09:07:02.927Z,68.93
2023-06-10T09:09:31.811Z,67.04
2023-06-10T09:12:00.266Z,64.13
2023-06-10T09:14:28.288Z,66.53
2023-06-10T09:16:58.199Z,62.82
2023-06-10T09:19:26.475Z,63.98
2023-06-10T09:21:54.391Z,68.30
2023-06-10T09:24:25.078Z,61.85
2023-06-10T09:26:53.083Z,62.39
2023-06-10T09:29:20.924Z,64.49
2023-06-10T09:31:49.272Z,63.16
2023-06-10T09:34:18.322Z,64.83
2023-06-10T09:36:46.442Z,57.21
2023-06-10T09:39:22.375Z,59.52
2023-06-10T09:41:52.050Z,62.08
2023-06-10T09:44:20.640Z,60.33
2023-06-10T09:46:49.019Z,59.09
2023-06-10T09:49:18.079Z,59.47
2023-06-10T09:51:53.369Z,58.57
2023-06-10T09:54:21.675Z,59.75
2023-06-10T09:56:50.100Z,61.23
2023-06-10T09:59:30.326Z,64.67
2023-06-10T10:01:58.461Z,64.85
2023-06-10T10:04:26.976Z,71.14
2023-06-10T10:06:55.083Z,72.92
2023-06-10T10:09:23.361Z,75.38
2023-06-10T10:11:52.022Z,76.82
2023-06-10T10:14:22.330Z,82.01
2023-06-10T10:16:52.059Z,91.64
2023-06-10T10:19:25.577Z,97.80
2023-06-10T10:21:55.778Z,100.00
2023-06-10T10:24:25.657Z,100.00
2023-06-10T10:26:56.873Z,100.00
2023-06-10T10:29:28.344Z,100.00
2023-06-10T10:31:59.143Z,100.00
2023-06-10T10:34:33.515Z,99.26
2023-06-10T10:37:04.614Z,97.43
2023-06-10T10:39:37.145Z,93.85
2023-06-10T10:42:11.883Z,93.72
2023-06-10T10:44:45.467Z,87.67
2023-06-10T10:47:18.309Z,85.76
2023-06-10T10:49:51.191Z,81.50
2023-06-10T10:52:22.283Z,85.15
2023-06-10T10:54:58.433Z,80.95
2023-06-10T10:57:33.703Z,74.47
2023-06-10T11:00:07.116Z,70.60
2023-06-10T11:02:42.622Z,71.34
2023-06-10T11:05:14.538Z,73.15
2023-06-10T11:07:46.557Z,72.84
2023-06-10T11:10:18.028Z,66.60
2023-06-10T11:12:57.638Z,66.97
2023-06-10T11:15:30.223Z,64.95
2023-06-10T11:18:20.215Z,63.86
2023-06-10T11:21:00.679Z,66.10
2023-06-10T11:23:35.073Z,60.56
2023-06-10T11:26:15.971Z,62.31
2023-06-10T11:28:44.573Z,59.69
2023-06-10T11:31:21.943Z,59.55
2023-06-10T11:33:50.525Z,59.84
2023-06-10T11:36:19.370Z,61.78
2023-06-10T11:38:48.460Z,60.96
2023-06-10T11:41:16.981Z,60.98
2023-06-10T11:43:45.521Z,58.41
2023-06-10T11:46:13.733Z,58.67
2023-06-10T11:48:50.873Z,57.74
2023-06-10T11:51:19.585Z,56.83
2023-06-10T11:53:47.684Z,57.64
2023-06-10T11:56:15.743Z,62.06
2023-06-10T11:58:46.312Z,66.77
2023-06-10T12:01:28.270Z,71.54
2023-06-10T12:04:08.384Z,71.70
2023-06-10T12:06:44.458Z,75.42
2023-06-10T12:09:25.314Z,79.77
2023-06-10T12:11:56.930Z,81.37
2023-06-10T12:14:43.311Z,78.85
2023-06-10T12:17:11.608Z,77.55
2023-06-10T12:19:42.264Z,75.02
2023-06-10T12:22:11.397Z,71.05
2023-06-10T12:24:46.879Z,73.02
2023-06-10T12:27:15.222Z,65.43
2023-06-10T12:29:55.112Z,64.13
2023-06-10T12:32:28.287Z,63.72
2023-06-10T12:35:06.882Z,63.05
2023-06-10T12:37:36.937Z,61.80
2023-06-10T12:40:09.501Z,60.89
2023-06-10T12:42:38.338Z,59.60
2023-06-10T12:45:11.810Z,61.06
2023-06-10T12:47:41.166Z,61.30
2023-06-10T12:50:13.344Z,61.15
2023-06-10T12:52:42.340Z,63.77
2023-06-10T12:55:10.834Z,60.96
2023-06-10T12:57:39.043Z,60.75
2023-06-10T13:00:10.099Z,58.21
2023-06-10T13:02:38.084Z,57.48
2023-06-10T13:05:06.258Z,57.97
2023-06-10T13:07:35.769Z,55.37
2023-06-10T13:10:03.613Z,55.52
2023-06-10T13:12:46.126Z,54.33
2023-06-10T13:15:15.884Z,54.20
2023-06-10T13:17:44.483Z,53.66
2023-06-10T13:20:12.739Z,56.96
2023-06-10T13:22:41.929Z,57.24
2023-06-10T13:25:10.971Z,57.42
2023-06-10T13:27:40.213Z,57.59
2023-06-10T13:30:08.807Z,59.40
2023-06-10T13:32:36.917Z,59.31
2023-06-10T13:35:06.141Z,61.05
2023-06-10T13:37:34.949Z,62.29
2023-06-10T13:40:05.033Z,61.74
2023-06-10T13:42:33.277Z,65.27
2023-06-10T13:45:01.131Z,63.76
2023-06-10T13:47:29.371Z,65.86
2023-06-10T13:49:57.351Z,67.13
2023-06-10T13:52:25.322Z,72.69
2023-06-10T13:54:53.222Z,79.28
2023-06-10T13:57:22.721Z,75.90
2023-06-10T13:59:50.632Z,81.16
2023-06-10T14:02:18.580Z,78.26
2023-06-10T14:04:46.541Z,76.47
2023-06-10T14:07:14.476Z,76.40
2023-06-10T14:09:42.372Z,76.67
2023-06-10T14:12:10.502Z,76.25
2023-06-10T14:14:39.777Z,80.91
2023-06-10T14:17:08.025Z,85.20
2023-06-10T14:19:35.969Z,83.68
2023-06-10T14:22:06.519Z,80.64
2023-06-10T14:24:36.283Z,79.85
2023-06-10T14:27:04.165Z,81.17
2023-06-10T14:29:32.912Z,75.42
2023-06-10T14:32:02.491Z,74.79
2023-06-10T14:34:34.784Z,73.07
2023-06-10T14:37:04.570Z,71.57
2023-06-10T14:39:32.562Z,70.27
2023-06-10T14:42:00.413Z,72.39
2023-06-10T14:44:28.822Z,74.43
2023-06-10T14:46:56.743Z,77.42
2023-06-10T14:49:25.970Z,80.21
2023-06-10T14:51:54.050Z,81.71
2023-06-10T14:54:21.871Z,79.40
2023-06-10T14:56:49.844Z,81.60
2023-06-10T14:59:17.742Z,83.64
2023-06-10T15:01:45.689Z,86.34
2023-06-10T15:04:13.717Z,87.25
2023-06-10T15:06:43.751Z,86.87
2023-06-10T15:09:11.671Z,86.28
2023-06-10T15:11:39.971Z,84.99
2023-06-10T15:14:07.875Z,86.71
2023-06-10T15:16:36.629Z,88.59
2023-06-10T15:19:04.704Z,89.31
2023-06-10T15:21:32.623Z,95.12
2023-06-10T15:24:01.960Z,96.73
2023-06-10T15:26:29.901Z,96.26
2023-06-10T15:28:57.862Z,98.53
2023-06-10T15:31:26.020Z,99.36
2023-06-10T15:33:53.952Z,95.56
2023-06-10T15:36:21.963Z,98.91
2023-06-10T15:38:49.791Z,100.00
2023-06-10T15:41:19.248Z,100.00
2023-06-10T15:43:47.685Z,100.00
2023-06-10T15:46:15.645Z,100.00
2023-06-10T15:48:43.619Z,100.00
2023-06-10T15:51:11.841Z,100.00
2023-06-10T15:53:39.668Z,100.00
2023-06-10T15:56:07.605Z,100.00
2023-06-10T15:58:36.885Z,100.00
2023-06-10T16:01:05.165Z,100.00
2023-06-10T16:03:33.209Z,100.00
2023-06-10T16:06:01.226Z,100.00
2023-06-10T16:08:29.712Z,100.00
2023-06-10T16:10:57.651Z,100.00
2023-06-10T16:13:25.528Z,100.00
2023-06-10T16:15:54.896Z,100.00
2023-06-10T16:18:22.830Z,100.00
2023-06-10T16:20:50.843Z,100.00
2023-06-10T16:23:18.742Z,100.00
2023-06-10T16:25:47.007Z,100.00
2023-06-10T16:28:14.945Z,100.00
2023-06-10T16:30:42.854Z,100.00
2023-06-10T16:33:12.248Z,100.00
2023-06-10T16:35:40.088Z,100.00
2023-06-10T16:38:07.945Z,100.00
2023-06-10T16:40:35.845Z,100.00
2023-06-10T16:43:03.838Z,100.00
2023-06-10T16:45:31.846Z,100.00
2023-06-10T16:47:59.844Z,100.00
2023-06-10T16:50:29.230Z,100.00
2023-06-10T16:52:57.118Z,100.00
2023-06-10T16:55:25.107Z,100.00
2023-06-10T16:57:53.052Z,100.00
2023-06-10T17:00:25.097Z,100.00
2023-06-10T17:02:53.332Z,100.00
2023-06-10T17:05:21.292Z,100.00
2023-06-10T17:07:50.814Z,100.00
2023-06-10T17:10:18.733Z,100.00
2023-06-10T17:12:47.921Z,100.00
2023-06-10T17:15:16.671Z,100.00
2023-06-10T17:17:44.636Z,100.00
2023-06-10T17:20:13.191Z,100.00
2023-06-10T17:22:41.148Z,100.00
2023-06-10T17:25:11.006Z,100.00
2023-06-10T17:27:39.225Z,100.00
2023-06-10T17:30:09.614Z,100.00
2023-06-10T17:32:42.322Z,100.00
2023-06-10T17:35:11.578Z,100.00
2023-06-10T17:37:39.886Z,100.00
2023-06-10T17:40:08.878Z,100.00
2023-06-10T17:42:41.105Z,100.00
2023-06-10T17:45:09.989Z,100.00
2023-06-10T17:47:40.654Z,100.00
2023-06-10T17:50:09.046Z,100.00
2023-06-10T17:52:36.903Z,100.00
2023-06-10T17:55:05.098Z,100.00
2023-06-10T17:57:36.054Z,100.00
2023-06-10T18:00:06.549Z,100.00
2023-06-10T18:02:34.530Z,100.00
2023-06-10T18:05:02.542Z,100.00
2023-06-10T18:07:30.641Z,100.00
2023-06-10T18:09:58.548Z,100.00
2023-06-10T18:12:29.625Z,100.00
2023-06-10T18:14:57.457Z,100.00
2023-06-10T18:17:30.298Z,100.00
2023-06-10T18:19:58.266Z,100.00
2023-06-10T18:22:26.192Z,100.00
2023-06-10T18:24:54.635Z,100.00
2023-06-10T18:27:22.636Z,100.00
2023-06-10T18:29:50.535Z,100.00
2023-06-10T18:32:27.880Z,100.00
2023-06-10T18:34:57.193Z,100.00
2023-06-10T18:37:25.997Z,100.00
2023-06-10T18:40:02.041Z,100.00
2023-06-10T18:42:30.619Z,100.00
2023-06-10T18:44:58.561Z,100.00
2023-06-10T18:47:26.756Z,100.00
2023-06-10T18:49:54.895Z,100.00
2023-06-10T18:52:24.515Z,100.00
2023-06-10T18:54:52.616Z,100.00
2023-06-10T18:57:20.778Z,100.00
2023-06-10T18:59:48.686Z,100.00
2023-06-10T19:02:16.926Z,100.00
2023-06-10T19:04:45.433Z,100.00
2023-06-10T19:07:18.396Z,100.00
2023-06-10T19:09:53.859Z,100.00
2023-06-10T19:12:25.226Z,100.00
2023-06-10T19:14:56.112Z,100.00
2023-06-10T19:17:27.325Z,100.00
2023-06-10T19:20:07.793Z,100.00
2023-06-10T19:22:43.637Z,100.00
2023-06-10T19:25:15.758Z,100.00
2023-06-10T19:27:44.724Z,100.00
2023-06-10T19:30:13.197Z,100.00
2023-06-10T19:32:41.616Z,100.00
2023-06-10T19:35:10.506Z,100.00
2023-06-10T19:37:38.696Z,100.00
2023-06-10T19:40:07.356Z,100.00
2023-06-10T19:42:38.460Z,100.00
2023-06-10T19:45:07.181Z,100.00
2023-06-10T19:47:35.472Z,100.00
2023-06-10T19:50:03.357Z,100.00
2023-06-10T19:52:33.432Z,100.00
2023-06-10T19:55:01.598Z,100.00
2023-06-10T19:57:29.634Z,100.00
2023-06-10T19:59:58.934Z,100.00
2023-06-10T20:02:33.209Z,100.00
2023-06-10T20:05:01.550Z,100.00
2023-06-10T20:07:29.790Z,100.00
2023-06-10T20:09:58.656Z,100.00
2023-06-10T20:12:26.737Z,100.00
2023-06-10T20:14:54.561Z,100.00
2023-06-10T20:17:24.173Z,100.00
2023-06-10T20:19:53.724Z,100.00
2023-06-10T20:22:22.098Z,100.00
2023-06-10T20:24:52.744Z,100.00
2023-06-10T20:27:20.823Z,100.00
2023-06-10T20:29:48.900Z,100.00
2023-06-10T20:32:17.040Z,100.00
2023-06-10T20:34:46.614Z,100.00
2023-06-10T20:37:14.613Z,100.00
2023-06-10T20:39:43.024Z,100.00
2023-06-10T20:42:12.530Z,100.00
2023-06-10T20:44:42.336Z,100.00
2023-06-10T20:47:10.741Z,100.00
2023-06-10T20:49:38.665Z,100.00
2023-06-10T20:52:08.401Z,100.00
2023-06-10T20:54:36.594Z,100.00
2023-06-10T20:57:18.723Z,100.00
2023-06-10T20:59:46.796Z,100.00
2023-06-10T21:02:14.804Z,100.00
2023-06-10T21:04:42.701Z,100.00
2023-06-10T21:07:12.252Z,100.00
2023-06-10T21:09:40.106Z,100.00
2023-06-10T21:12:08.532Z,100.00
2023-06-10T21:14:36.503Z,100.00
2023-06-10T21:17:04.713Z,100.00
2023-06-10T21:19:32.604Z,100.00
2023-06-10T21:22:02.524Z,100.00
2023-06-10T21:24:33.631Z,100.00
2023-06-10T21:27:01.516Z,100.00
2023-06-10T21:29:29.860Z,100.00
2023-06-10T21:31:58.242Z,100.00
2023-06-10T21:34:26.423Z,100.00
2023-06-10T21:36:54.636Z,100.00
2023-06-10T21:39:22.545Z,100.00
2023-06-10T21:41:51.974Z,100.00
2023-06-10T21:44:19.868Z,100.00
2023-06-10T21:46:47.778Z,100.00
2023-06-10T21:49:15.788Z,100.00
2023-06-10T21:51:44.330Z,100.00
2023-06-10T21:54:12.168Z,100.00
2023-06-10T21:56:40.048Z,100.00
2023-06-10T21:59:10.254Z,100.00
2023-06-10T22:01:38.512Z,100.00
2023-06-10T22:04:06.683Z,100.00
2023-06-10T22:06:35.301Z,100.00
2023-06-10T22:09:03.305Z,100.00
2023-06-10T22:11:31.253Z,100.00
2023-06-10T22:13:59.117Z,100.00
2023-06-10T22:16:28.720Z,100.00
2023-06-10T22:18:56.737Z,100.00
2023-06-10T22:21:25.186Z,100.00
2023-06-10T22:23:53.234Z,100.00
2023-06-10T22:26:21.091Z,100.00
2023-06-10T22:28:49.068Z,100.00
2023-06-10T22:31:17.100Z,100.00
2023-06-10T22:33:46.460Z,100.00
2023-06-10T22:36:14.440Z,100.00
2023-06-10T22:38:42.252Z,100.00
2023-06-10T22:41:10.112Z,100.00
2023-06-10T22:43:38.054Z,100.00
2023-06-10T22:46:05.894Z,100.00
2023-06-10T22:48:34.177Z,100.00
2023-06-10T22:51:03.675Z,100.00
2023-06-10T22:53:31.803Z,100.00
2023-06-10T22:55:59.903Z,100.00
2023-06-10T22:58:28.051Z,100.00
2023-06-10T23:00:56.039Z,100.00
2023-06-10T23:03:23.849Z,100.00
2023-06-10T23:05:51.770Z,100.00
2023-06-10T23:08:21.054Z,100.00
2023-06-10T23:10:49.014Z,100.00
2023-06-10T23:13:16.965Z,100.00
2023-06-10T23:15:44.908Z,100.00
2023-06-10T23:18:13.805Z,100.00
2023-06-10T23:20:43.118Z,100.00
2023-06-10T23:23:14.603Z,100.00
2023-06-10T23:25:46.012Z,100.00
2023-06-10T23:28:13.988Z,100.00
2023-06-10T23:30:41.929Z,100.00
2023-06-10T23:33:09.978Z,100.00
2023-06-10T23:35:37.989Z,100.00
2023-06-10T23:38:05.933Z,100.00
2023-06-10T23:40:33.793Z,100.00
2023-06-10T23:43:03.085Z,100.00
2023-06-10T23:45:31.073Z,100.00
2023-06-10T23:47:59.081Z,100.00
2023-06-10T23:50:26.992Z,100.00
2023-06-10T23:52:54.870Z,100.00
2023-06-10T23:55:24.217Z,100.00
2023-06-10T23:57:52.099Z,100.00
